CCDO2: Spavinaw Creek nr Colcord OK

Data processed at Fri Jan 05 2018 23:24


All information presented herein is the property of the government of the United States of America and may be revised or deleted at any time without prior notice.
Dissemination of this information without the expressed written consent of the Public Affairs Office, Tulsa District U.S. Army Corps of Engineers is strictly prohibited.
These data are gathered electronically and, as presented, have not undergone any form of quality control. These data are not guaranteed to be valid or correct.
Go to home page.
Go to station list.

Upstream stations:

Downstream station:
Previous Day
Next Day
Current Day
    
SHEF ID:       CCDO2     Spavinaw Creek near Colcord, OK
STATION TYPE:  

               PRECIP     STAGE  RIV-FLOW  WTR-TEMP   DIS-OXY        PH   CONDUCT TURBIDITY  BAT-LOAD
                   in        ft       cfs         F      mg/l        su   umho/cm       NTU      volt
              Ccp-Rev   Ccp-Rev   Ccp-Rev   Ccp-Rev   Ccp-Rev   Ccp-Rev   Ccp-Rev   Ccp-Rev   Ccp-Rev
(US/Central)
01/03 00:00      0.00      8.20       580     48.13     10.75      8.04       341      ----     12.60
01/03 01:00      0.00      8.05       494     47.97     10.66      8.02       341      ----     12.60
01/03 02:00      0.00      8.09       516     47.86     10.57      8.02       341      ----     12.60
01/03 03:00      0.00      8.25       608     47.70     10.56      8.02       341      ----     12.60
01/03 04:00      0.00      8.24       602     47.64     10.47      8.01       341      ----     12.54
01/03 05:00      0.00      8.24       602     47.52     10.45      8.00       341      ----     12.54
01/03 06:00      ----      8.23       597     47.37     10.46      8.01       341      ----     12.54
01/03 07:00      0.00      8.23       597     47.32     10.42      8.00       342      ----     12.54
01/03 08:00      0.00      8.08       511     47.21     10.43      7.99       342      ----     12.54
01/03 09:00      0.00      8.01       471     47.07     10.52      8.01       341      ----     12.48
01/03 10:00      0.00      8.23       597     47.21     10.55      8.01       342      ----     12.54
01/03 11:00      0.00      8.24       602     47.39     10.78      8.02       340      ----     13.00
01/03 12:00      0.00      8.24       602     47.64     11.10      8.05       340      ----     13.77
01/03 13:00      0.00      8.23       597     47.91     11.37      8.08       339      ----     13.77
01/03 14:00      0.00      8.24       602     48.20     11.67      8.10       339      ----     13.77
01/03 15:00      0.00      8.24       602     48.38     11.91      8.13       338      ----     13.77
01/03 16:00      0.00      8.23       597     48.58     12.06      8.17       337      ----     13.77
01/03 17:00      0.00      8.23       597     48.97     12.21      8.18       337      ----     13.65
01/03 18:00      0.00      8.23       597     49.28     12.18      8.19       337      ----     13.18
01/03 19:00      0.00      8.23       597     49.30     12.06      8.18       337      ----     13.07
01/03 20:00      0.00      8.24       602     49.23     11.70      8.15       337      ----     13.00
01/03 21:00      0.00      8.23       597     49.10     11.44      8.12       338      ----     12.95
01/03 22:00      0.00      8.23       597     48.90     11.19      8.10       338      ----     12.89
01/03 23:00      0.00      8.23       597     48.69     11.04      8.08       339      ----     12.89